EBLG METAR and TAF | Updated Today

EBLG METAR

Liège Airport

Observation time: 21 min. ago

EBLG 061950Z 02004KT 8000 SCT032 01/M00 Q1038 NOSIG

Need help? Read our tutorial on how to read METARs or read the parsed version below.

Liège Airport (EBLG) METAR

  • Weather conditions on Mon, 06 Feb 2023 19:50:00 +0000 (21 min. ago):
  • Present conditions: Dry
  • Clouds: Scattered at 975 meters
  • Visibility: 8000 meters
  • Wind: 20 degrees at 4 knots
  • Temperature: 1 celsius
  • Dew point: 0 celsius
  • Pressure: 1038 millibars
  • Remarks: None


Useful to know...

EBLG TAF

Liège Airport

TAF EBLG 061701Z 0618/0724 05006KT 9999 FEW025 TEMPO 0622/0704 3500 BR MIFG PROB30 TEMPO 0623/0703 0700 FZFG
Observation time: 3:10 hr. ago
Need help? Read our tutorial on how to read TAFs or read the parsed version below.

Parsed version of TAF for Liège Airport (EBLG)

  • From 06 February at 18:00 UTC, to day 07 of the month at 24:00 UTC
  • Clouds: A few at 762 meters
  • Visibility: Greater than 10 km
  • Wind: 50 degrees at 6
  • Expected to arise temporarily, from 06 February at 22:00 UTC, to day 07 of the month at 04:00 UTC
  • Visibility: 3500 meters
  • Other: Mist; shallow fog
  • Expected to arise temporarily, from 06 February at 23:00 UTC, to day 07 of the month at 03:00 UTC
    Probability of 30%
  • Visibility: 700 meters
  • Other: Freezing fog